Terminal Aerodrome Forecast
Issued by NWS

Current Version | Previous Version | Text Only | Print | Product List | Glossary Off
Versions: 1 2 3 4 5 6 7 8 9 10 11 12 13 14 15 16 17 18 19 20 21 22 23

545
FTUS41 KPBZ 101120
TAFMGW
TAF
KMGW 101120Z 1012/1112 24009G14KT P6SM BKN016 OVC024
     FM102100 25010KT 1 1/2SM -SHSN OVC012
     FM110100 25010KT 4SM -SHSN OVC022=

USA.gov is the U.S. government's official web portal to all federal, state and local government web resources and services.